createdAt,value
2018-12-05T00:04:11.924Z,8.53
2018-12-05T00:06:39.359Z,7.37
2018-12-05T00:09:10.047Z,8.37
2018-12-05T00:11:38.459Z,8.13
2018-12-05T00:14:11.013Z,7.47
2018-12-05T00:16:38.437Z,7.60
2018-12-05T00:19:08.751Z,8.87
2018-12-05T00:21:36.197Z,7.60
2018-12-05T00:24:03.808Z,9.37
2018-12-05T00:26:32.245Z,8.53
2018-12-05T00:28:59.650Z,8.87
2018-12-05T00:31:27.098Z,9.30
2018-12-05T00:34:02.421Z,9.23
2018-12-05T00:36:29.855Z,8.70
2018-12-05T00:39:01.334Z,8.93
2018-12-05T00:41:28.763Z,8.70
2018-12-05T00:43:59.119Z,9.60
2018-12-05T00:46:26.763Z,9.93
2018-12-05T00:48:54.192Z,9.10
2018-12-05T00:51:21.789Z,9.20
2018-12-05T00:53:49.211Z,9.53
2018-12-05T00:56:16.630Z,9.23
2018-12-05T00:58:44.154Z,9.50
2018-12-05T01:01:11.617Z,8.87
2018-12-05T01:03:39.049Z,10.30
2018-12-05T01:06:06.463Z,9.20
2018-12-05T01:08:34.089Z,8.93
2018-12-05T01:11:01.536Z,9.80
2018-12-05T01:13:29.028Z,9.40
2018-12-05T01:15:56.463Z,10.03
2018-12-05T01:18:39.808Z,10.43
2018-12-05T01:21:07.259Z,9.50
2018-12-05T01:23:34.872Z,9.60
2018-12-05T01:26:02.381Z,9.37
2018-12-05T01:28:29.816Z,9.93
2018-12-05T01:30:57.304Z,9.50
2018-12-05T01:33:24.802Z,9.33
2018-12-05T01:35:52.218Z,9.27
2018-12-05T01:38:19.639Z,10.10
2018-12-05T01:40:53.663Z,10.17
2018-12-05T01:46:09.106Z,8.87
2018-12-05T01:48:41.322Z,9.67
2018-12-05T01:51:08.765Z,9.23
2018-12-05T01:53:36.174Z,9.17
2018-12-05T01:56:03.701Z,9.67
2018-12-05T01:58:31.275Z,8.93
2018-12-05T02:00:59.562Z,8.60
2018-12-05T02:03:27.127Z,8.83
2018-12-05T02:05:54.762Z,9.97
2018-12-05T02:08:27.079Z,8.60
2018-12-05T02:10:59.444Z,8.77
2018-12-05T02:13:33.297Z,8.20
2018-12-05T02:16:00.709Z,7.80
2018-12-05T02:18:28.336Z,8.07
2018-12-05T02:20:55.867Z,8.47
2018-12-05T02:23:23.315Z,7.67
2018-12-05T02:25:50.755Z,8.70
2018-12-05T02:28:18.196Z,8.60
2018-12-05T02:31:05.313Z,8.47
2018-12-05T02:33:32.843Z,8.27
2018-12-05T02:36:00.330Z,8.23
2018-12-05T02:38:27.755Z,8.10
2018-12-05T02:40:58.133Z,9.10
2018-12-05T02:43:29.535Z,7.43
2018-12-05T02:46:01.775Z,8.37
2018-12-05T02:48:29.220Z,8.40
2018-12-05T02:50:56.679Z,8.60
2018-12-05T02:53:24.103Z,9.23
2018-12-05T02:55:52.079Z,8.17
2018-12-05T02:58:19.517Z,8.40
2018-12-05T03:00:47.002Z,7.93
2018-12-05T03:03:14.439Z,7.90
2018-12-05T03:05:42.169Z,7.73
2018-12-05T03:08:09.583Z,7.73
2018-12-05T03:10:37.026Z,7.63
2018-12-05T03:15:58.588Z,8.53
2018-12-05T03:18:26.011Z,8.33
2018-12-05T03:20:53.445Z,8.37
2018-12-05T03:23:24.875Z,9.00
2018-12-05T03:25:58.008Z,8.57
2018-12-05T03:28:25.439Z,9.60
2018-12-05T03:30:55.734Z,9.47
2018-12-05T03:33:38.695Z,8.83
2018-12-05T03:36:06.144Z,9.70
2018-12-05T03:38:34.509Z,10.27
2018-12-05T03:41:01.952Z,10.77
2018-12-05T03:43:34.483Z,10.73
2018-12-05T03:46:02.031Z,10.70
2018-12-05T03:48:29.447Z,11.67
2018-12-05T03:50:56.879Z,13.60
2018-12-05T03:53:24.321Z,14.07
2018-12-05T03:55:51.807Z,13.63
2018-12-05T03:58:20.202Z,14.00
2018-12-05T04:00:47.719Z,13.43
2018-12-05T04:03:15.178Z,13.43
2018-12-05T04:05:42.582Z,14.13
2018-12-05T04:08:10.036Z,12.37
2018-12-05T04:10:37.448Z,13.93
2018-12-05T04:13:04.903Z,13.50
2018-12-05T04:15:32.306Z,13.90
2018-12-05T04:17:59.764Z,13.47
2018-12-05T04:20:37.773Z,14.27
2018-12-05T04:23:05.215Z,13.40
2018-12-05T04:25:37.582Z,14.33
2018-12-05T04:28:15.065Z,14.60
2018-12-05T04:33:14.563Z,14.53
2018-12-05T04:35:41.979Z,13.57
2018-12-05T04:38:09.414Z,13.63
2018-12-05T04:40:36.843Z,13.13
2018-12-05T04:43:04.288Z,13.87
2018-12-05T04:45:31.721Z,14.47
2018-12-05T04:47:59.214Z,13.50
2018-12-05T04:50:26.624Z,13.93
2018-12-05T04:52:54.060Z,14.07
2018-12-05T04:55:21.517Z,14.00
2018-12-05T04:57:49.040Z,13.67
2018-12-05T05:00:16.511Z,13.90
2018-12-05T05:02:43.926Z,14.37
2018-12-05T05:05:11.372Z,15.27
2018-12-05T05:07:38.791Z,15.17
2018-12-05T05:10:06.382Z,16.33
2018-12-05T05:12:37.806Z,15.60
2018-12-05T05:15:10.328Z,16.30
2018-12-05T05:17:37.743Z,15.40
2018-12-05T05:20:11.956Z,15.97
2018-12-05T05:22:42.508Z,15.57
2018-12-05T05:25:09.943Z,15.83
2018-12-05T05:27:46.044Z,14.73
2018-12-05T05:30:13.474Z,14.90
2018-12-05T05:32:40.894Z,14.90
2018-12-05T05:35:08.327Z,16.63
2018-12-05T05:37:35.956Z,16.00
2018-12-05T05:40:04.523Z,14.97
2018-12-05T05:42:31.962Z,15.50
2018-12-05T05:45:00.204Z,15.90
2018-12-05T05:47:27.647Z,16.07
2018-12-05T05:49:55.058Z,17.27
2018-12-05T05:54:57.198Z,24.23
2018-12-05T05:57:28.590Z,23.47
2018-12-05T06:00:00.947Z,23.93
2018-12-05T06:02:28.383Z,16.43
2018-12-05T06:05:10.771Z,16.10
2018-12-05T06:07:41.029Z,15.70
2018-12-05T06:10:18.296Z,16.83
2018-12-05T06:12:45.706Z,15.93
2018-12-05T06:15:13.219Z,15.40
2018-12-05T06:17:40.674Z,16.70
2018-12-05T06:20:22.920Z,16.23
2018-12-05T06:22:50.475Z,15.50
2018-12-05T06:28:06.550Z,18.13
2018-12-05T06:30:34.042Z,17.47
2018-12-05T06:33:01.455Z,17.77
2018-12-05T06:35:28.895Z,17.70
2018-12-05T06:37:56.318Z,19.33
2018-12-05T06:40:23.754Z,19.47
2018-12-05T06:42:51.319Z,19.63
2018-12-05T06:45:18.763Z,21.23
2018-12-05T06:47:46.200Z,19.57
2018-12-05T06:50:13.636Z,19.97
2018-12-05T06:52:57.233Z,18.53
2018-12-05T06:55:24.703Z,20.43
2018-12-05T06:57:53.914Z,18.83
2018-12-05T07:00:24.577Z,20.40
2018-12-05T07:02:55.950Z,17.97
2018-12-05T07:05:23.403Z,19.57
2018-12-05T07:07:50.817Z,19.17
2018-12-05T07:10:18.271Z,18.03
2018-12-05T07:12:45.709Z,18.80
2018-12-05T07:15:13.307Z,18.97
2018-12-05T07:17:40.772Z,19.13
2018-12-05T07:20:08.271Z,20.17
2018-12-05T07:22:36.035Z,18.30
2018-12-05T07:25:12.402Z,17.93
2018-12-05T07:27:44.692Z,19.27
2018-12-05T07:30:12.118Z,18.50
2018-12-05T07:32:39.559Z,18.80
2018-12-05T07:35:07.075Z,18.70
2018-12-05T07:37:41.088Z,17.67
2018-12-05T07:40:12.531Z,18.00
2018-12-05T07:45:23.100Z,17.87
2018-12-05T07:47:50.563Z,19.27
2018-12-05T07:50:21.923Z,17.23
2018-12-05T07:55:37.614Z,17.13
2018-12-05T07:58:05.050Z,17.80
2018-12-05T08:00:32.509Z,16.33
2018-12-05T08:03:01.668Z,15.70
2018-12-05T08:05:29.389Z,16.33
2018-12-05T08:07:56.960Z,15.77
2018-12-05T08:10:30.357Z,16.30
2018-12-05T08:12:57.886Z,14.87
2018-12-05T08:15:25.315Z,15.27
2018-12-05T08:17:57.639Z,15.57
2018-12-05T08:20:25.099Z,16.90
2018-12-05T08:22:52.839Z,15.83
2018-12-05T08:25:25.128Z,15.83
2018-12-05T08:27:52.564Z,14.47
2018-12-05T08:30:19.974Z,15.63
2018-12-05T08:32:47.514Z,14.87
2018-12-05T08:35:14.986Z,14.37
2018-12-05T08:37:44.405Z,15.27
2018-12-05T08:40:11.852Z,14.07
2018-12-05T08:42:39.282Z,14.10
2018-12-05T08:45:06.722Z,13.97
2018-12-05T08:47:34.171Z,13.20
2018-12-05T08:50:03.580Z,12.83
2018-12-05T08:52:31.029Z,13.70
2018-12-05T08:55:01.357Z,12.90
2018-12-05T08:57:28.775Z,12.53
2018-12-05T09:00:00.093Z,13.07
2018-12-05T09:02:31.345Z,12.67
2018-12-05T09:04:59.051Z,11.60
2018-12-05T09:07:33.312Z,13.20
2018-12-05T09:10:04.353Z,12.50
2018-12-05T09:12:31.967Z,12.87
2018-12-05T09:18:16.317Z,12.63
2018-12-05T09:20:44.039Z,13.30
2018-12-05T09:23:11.470Z,13.73
2018-12-05T09:25:39.010Z,13.00
2018-12-05T09:28:06.473Z,13.93
2018-12-05T09:30:36.828Z,13.63
2018-12-05T09:33:04.281Z,13.87
2018-12-05T09:35:31.735Z,12.97
2018-12-05T09:37:59.455Z,14.50
2018-12-05T09:40:27.170Z,15.50
2018-12-05T09:42:54.606Z,13.63
2018-12-05T09:45:22.043Z,13.63
2018-12-05T09:47:53.439Z,15.17
2018-12-05T09:50:20.979Z,15.83
2018-12-05T09:52:48.423Z,15.50
2018-12-05T09:55:16.973Z,16.37
2018-12-05T09:57:44.482Z,17.73
2018-12-05T10:00:11.921Z,15.37
2018-12-05T10:02:44.259Z,15.30
2018-12-05T10:05:11.748Z,15.00
2018-12-05T10:07:39.341Z,14.87
2018-12-05T10:10:07.025Z,14.47
2018-12-05T10:12:34.546Z,14.13
2018-12-05T10:15:02.162Z,15.17
2018-12-05T10:17:34.527Z,15.97
2018-12-05T10:20:01.981Z,15.20
2018-12-05T10:22:29.463Z,15.17
2018-12-05T10:24:56.871Z,14.43
2018-12-05T10:27:24.308Z,14.83
2018-12-05T10:29:55.599Z,13.93
2018-12-05T10:32:23.027Z,15.30
2018-12-05T10:34:50.452Z,14.07
2018-12-05T10:37:21.835Z,15.40
2018-12-05T10:39:49.260Z,15.60
2018-12-05T10:42:16.734Z,14.20
2018-12-05T10:44:44.174Z,14.33
2018-12-05T10:47:11.603Z,13.47
2018-12-05T10:49:39.051Z,13.37
2018-12-05T10:54:45.137Z,13.57
2018-12-05T10:57:12.584Z,13.17
2018-12-05T10:59:40.011Z,14.50
2018-12-05T11:05:18.262Z,14.40
2018-12-05T11:07:52.215Z,13.73
2018-12-05T11:10:25.319Z,14.90
2018-12-05T11:12:58.386Z,14.30
2018-12-05T11:15:31.301Z,14.70
2018-12-05T11:18:04.285Z,14.70
2018-12-05T11:20:37.307Z,15.03
2018-12-05T11:23:11.734Z,14.37
2018-12-05T11:25:39.149Z,15.20
2018-12-05T11:28:06.569Z,15.80
2018-12-05T11:30:34.070Z,16.03
2018-12-05T11:33:03.433Z,14.67
2018-12-05T11:35:30.978Z,15.83
2018-12-05T11:37:58.433Z,14.57
2018-12-05T11:40:25.961Z,14.87
2018-12-05T11:42:53.404Z,15.00
2018-12-05T11:45:20.958Z,14.63
2018-12-05T11:47:49.197Z,14.67
2018-12-05T11:50:16.844Z,16.57
2018-12-05T11:52:44.256Z,16.07
2018-12-05T11:55:11.707Z,16.43
2018-12-05T11:57:39.122Z,16.27
2018-12-05T12:00:07.643Z,15.60
2018-12-05T12:02:35.046Z,15.77
2018-12-05T12:05:09.536Z,15.80
2018-12-05T12:07:41.922Z,16.03
2018-12-05T12:10:09.514Z,16.50
2018-12-05T12:12:42.398Z,15.33
2018-12-05T12:15:09.845Z,15.90
2018-12-05T12:17:37.296Z,14.97
2018-12-05T12:20:05.112Z,17.00
2018-12-05T12:22:32.615Z,16.40
2018-12-05T12:25:00.061Z,16.23
2018-12-05T12:27:27.509Z,19.20
2018-12-05T12:29:54.941Z,16.60
2018-12-05T12:32:22.456Z,16.90
2018-12-05T12:34:49.863Z,15.87
2018-12-05T12:37:17.316Z,17.40
2018-12-05T12:39:48.830Z,17.13
2018-12-05T12:42:16.270Z,16.40
2018-12-05T12:44:43.695Z,17.87
2018-12-05T12:47:11.129Z,16.10
2018-12-05T12:49:38.577Z,16.33
2018-12-05T12:52:06.308Z,16.77
2018-12-05T12:54:33.751Z,17.53
2018-12-05T12:57:01.263Z,16.13
2018-12-05T12:59:30.148Z,17.53
2018-12-05T13:01:57.654Z,18.07
2018-12-05T13:04:31.514Z,17.83
2018-12-05T13:07:01.098Z,17.47
2018-12-05T13:09:28.533Z,17.23
2018-12-05T13:11:56.039Z,18.47
2018-12-05T13:14:23.498Z,17.03
2018-12-05T13:16:50.917Z,17.20
2018-12-05T13:19:18.360Z,17.83
2018-12-05T13:21:46.050Z,18.27
2018-12-05T13:24:14.487Z,17.57
2018-12-05T13:26:41.913Z,16.87
2018-12-05T13:29:09.540Z,16.93
2018-12-05T13:31:36.967Z,17.07
2018-12-05T13:34:07.659Z,17.20
2018-12-05T13:36:35.899Z,17.30
2018-12-05T13:39:05.296Z,16.63
2018-12-05T13:41:32.764Z,17.10
2018-12-05T13:44:01.195Z,17.63
2018-12-05T13:46:32.580Z,17.70
2018-12-05T13:49:00.054Z,18.43
2018-12-05T13:51:35.454Z,18.13
2018-12-05T13:54:03.058Z,18.40
2018-12-05T13:56:30.503Z,18.13
2018-12-05T13:58:57.933Z,19.37
2018-12-05T14:01:25.370Z,19.33
2018-12-05T14:04:05.874Z,17.60
2018-12-05T14:06:33.392Z,18.73
2018-12-05T14:09:00.931Z,19.13
2018-12-05T14:11:34.361Z,19.37
2018-12-05T14:14:01.995Z,19.53
2018-12-05T14:16:34.361Z,19.50
2018-12-05T14:19:01.777Z,18.83
2018-12-05T14:21:29.229Z,20.27
2018-12-05T14:23:56.651Z,18.77
2018-12-05T14:26:24.103Z,18.17
2018-12-05T14:28:51.624Z,17.63
2018-12-05T14:31:19.148Z,19.03
2018-12-05T14:33:46.608Z,18.07
2018-12-05T14:36:14.049Z,17.83
2018-12-05T14:38:41.762Z,17.93
2018-12-05T14:41:09.285Z,17.53
2018-12-05T14:43:36.700Z,18.23
2018-12-05T14:46:04.312Z,17.20
2018-12-05T14:48:34.714Z,15.73
2018-12-05T14:51:02.166Z,16.77
2018-12-05T14:53:30.385Z,15.37
2018-12-05T14:56:07.732Z,14.67
2018-12-05T14:58:35.204Z,16.23
2018-12-05T15:01:02.648Z,16.33
2018-12-05T15:03:30.087Z,15.63
2018-12-05T15:05:57.508Z,16.07
2018-12-05T15:08:25.000Z,15.10
2018-12-05T15:10:52.443Z,15.50
2018-12-05T15:13:19.897Z,15.30
2018-12-05T15:15:47.329Z,14.93
2018-12-05T15:18:18.650Z,15.57
2018-12-05T15:20:46.078Z,15.60
2018-12-05T15:23:13.544Z,15.00
2018-12-05T15:25:40.966Z,16.27
2018-12-05T15:28:08.435Z,15.33
2018-12-05T15:30:36.371Z,15.07
2018-12-05T15:33:03.992Z,14.77
2018-12-05T15:35:31.447Z,16.07
2018-12-05T15:37:58.901Z,15.53
2018-12-05T15:40:26.337Z,15.63
2018-12-05T15:42:53.767Z,17.07
2018-12-05T15:45:21.671Z,14.77
2018-12-05T15:47:49.287Z,15.30
2018-12-05T15:50:18.020Z,15.57
2018-12-05T15:52:45.669Z,16.23
2018-12-05T15:58:19.980Z,14.93
2018-12-05T16:00:47.428Z,14.83
2018-12-05T16:03:14.988Z,15.73
2018-12-05T16:05:42.420Z,15.70
2018-12-05T16:08:09.913Z,15.60
2018-12-05T16:10:37.344Z,15.37
2018-12-05T16:13:05.228Z,14.90
2018-12-05T16:15:32.935Z,16.20
2018-12-05T16:18:00.368Z,16.43
2018-12-05T16:20:27.850Z,16.50
2018-12-05T16:22:55.267Z,16.03
2018-12-05T16:25:22.790Z,16.33
2018-12-05T16:27:54.246Z,15.80
2018-12-05T16:30:37.502Z,16.23
2018-12-05T16:33:04.940Z,14.93
2018-12-05T16:35:32.404Z,15.93
2018-12-05T16:37:59.864Z,16.90
2018-12-05T16:40:31.289Z,16.40
2018-12-05T16:42:58.746Z,17.10
2018-12-05T16:45:26.214Z,15.27
2018-12-05T16:47:53.668Z,16.00
2018-12-05T16:50:21.142Z,16.40
2018-12-05T16:52:48.630Z,16.20
2018-12-05T16:55:16.059Z,16.10
2018-12-05T16:57:43.520Z,15.77
2018-12-05T17:03:14.023Z,15.37
2018-12-05T17:05:41.460Z,15.80
2018-12-05T17:08:08.966Z,15.50
2018-12-05T17:10:36.392Z,16.27
2018-12-05T17:13:04.135Z,14.47
2018-12-05T17:15:31.554Z,15.20
2018-12-05T17:17:59.180Z,15.57
2018-12-05T17:20:31.602Z,13.47
2018-12-05T17:22:59.032Z,14.57
2018-12-05T17:25:26.590Z,15.57
2018-12-05T17:27:58.145Z,14.63
2018-12-05T17:30:25.575Z,13.73
2018-12-05T17:32:53.228Z,15.27
2018-12-05T17:35:20.683Z,14.30
2018-12-05T17:37:48.428Z,14.87
2018-12-05T17:40:15.995Z,15.47
2018-12-05T17:42:43.597Z,16.17
2018-12-05T17:45:11.095Z,15.23
2018-12-05T17:47:38.691Z,15.90
2018-12-05T17:50:06.341Z,14.83
2018-12-05T17:52:33.757Z,15.70
2018-12-05T17:55:01.208Z,14.37
2018-12-05T17:57:28.646Z,15.00
2018-12-05T17:59:56.112Z,15.23
2018-12-05T18:02:23.554Z,14.97
2018-12-05T18:04:51.176Z,15.10
2018-12-05T18:07:18.695Z,13.97
2018-12-05T18:09:46.348Z,15.57
2018-12-05T18:12:13.772Z,14.23
2018-12-05T18:14:41.201Z,13.63
2018-12-05T18:17:15.392Z,13.87
2018-12-05T18:22:39.704Z,15.83
2018-12-05T18:25:13.204Z,15.40
2018-12-05T18:27:40.719Z,14.73
2018-12-05T18:30:08.533Z,15.00
2018-12-05T18:32:36.081Z,16.83
2018-12-05T18:35:04.080Z,14.63
2018-12-05T18:37:35.531Z,14.30
2018-12-05T18:40:03.322Z,14.50
2018-12-05T18:42:30.760Z,13.37
2018-12-05T18:45:00.311Z,14.57
2018-12-05T18:47:27.874Z,13.60
2018-12-05T18:49:55.314Z,14.77
2018-12-05T18:52:22.788Z,13.53
2018-12-05T18:54:53.031Z,14.80
2018-12-05T18:57:20.508Z,13.63
2018-12-05T18:59:49.929Z,14.77
2018-12-05T19:02:17.374Z,13.63
2018-12-05T19:04:44.818Z,14.50
2018-12-05T19:07:12.329Z,13.77
2018-12-05T19:09:39.862Z,13.63
2018-12-05T19:12:12.211Z,13.60
2018-12-05T19:14:46.541Z,14.80
2018-12-05T19:17:18.649Z,13.67
2018-12-05T19:19:46.079Z,15.20
2018-12-05T19:22:13.519Z,14.03
2018-12-05T19:24:40.972Z,13.97
2018-12-05T19:27:08.409Z,13.57
2018-12-05T19:29:35.887Z,13.63
2018-12-05T19:32:03.348Z,13.53
2018-12-05T19:34:32.608Z,12.70
2018-12-05T19:37:00.133Z,13.13
2018-12-05T19:39:27.598Z,14.30
2018-12-05T19:41:55.043Z,13.33
2018-12-05T19:44:22.970Z,13.67
2018-12-05T19:46:57.490Z,14.30
2018-12-05T19:49:24.953Z,14.00
2018-12-05T19:51:52.405Z,13.70
2018-12-05T19:54:20.441Z,14.10
2018-12-05T19:56:47.908Z,13.20
2018-12-05T19:59:15.364Z,13.67
2018-12-05T20:01:42.876Z,14.03
2018-12-05T20:04:12.350Z,13.23
2018-12-05T20:06:39.836Z,13.87
2018-12-05T20:09:07.748Z,14.90
2018-12-05T20:11:35.191Z,12.40
2018-12-05T20:14:09.570Z,12.03
2018-12-05T20:16:37.060Z,13.43
2018-12-05T20:19:04.609Z,13.67
2018-12-05T20:21:32.063Z,13.43
2018-12-05T20:23:59.487Z,13.40
2018-12-05T20:26:27.047Z,13.93
2018-12-05T20:28:59.469Z,13.93
2018-12-05T20:31:26.910Z,12.87
2018-12-05T20:33:54.590Z,12.50
2018-12-05T20:36:22.030Z,13.20
2018-12-05T20:38:49.509Z,12.30
2018-12-05T20:41:33.216Z,12.17
2018-12-05T20:43:59.038Z,13.00
2018-12-05T20:46:26.493Z,12.47
2018-12-05T20:48:53.930Z,13.77
2018-12-05T20:51:21.502Z,13.40
2018-12-05T20:53:48.953Z,13.37
2018-12-05T20:56:16.540Z,13.23
2018-12-05T20:58:43.983Z,12.53
2018-12-05T21:01:14.411Z,12.87
2018-12-05T21:03:46.801Z,13.03
2018-12-05T21:08:57.384Z,13.40
2018-12-05T21:11:24.971Z,13.47
2018-12-05T21:13:52.488Z,12.73
2018-12-05T21:16:19.956Z,13.37
2018-12-05T21:18:47.434Z,12.73
2018-12-05T21:21:14.870Z,12.93
2018-12-05T21:23:42.319Z,13.37
2018-12-05T21:26:09.761Z,13.37
2018-12-05T21:28:37.468Z,12.77
2018-12-05T21:31:05.127Z,13.83
2018-12-05T21:33:36.844Z,13.63
2018-12-05T21:36:07.443Z,12.57
2018-12-05T21:38:34.882Z,15.07
2018-12-05T21:41:02.343Z,14.03
2018-12-05T21:43:37.298Z,13.13
2018-12-05T21:46:08.559Z,13.13
2018-12-05T21:48:40.047Z,13.17
2018-12-05T21:51:12.247Z,13.07
2018-12-05T21:53:39.709Z,13.00
2018-12-05T21:56:07.267Z,13.07
2018-12-05T21:58:34.702Z,12.63
2018-12-05T22:01:09.579Z,12.43
2018-12-05T22:03:37.026Z,13.23
2018-12-05T22:06:04.469Z,12.67
2018-12-05T22:08:31.896Z,12.97
2018-12-05T22:10:59.383Z,13.23
2018-12-05T22:13:27.062Z,13.87
2018-12-05T22:15:54.499Z,12.77
2018-12-05T22:18:25.878Z,13.77
2018-12-05T22:20:59.134Z,12.87
2018-12-05T22:26:09.777Z,13.53
2018-12-05T22:28:37.223Z,13.67
2018-12-05T22:34:33.544Z,13.53
2018-12-05T22:37:01.945Z,13.30
2018-12-05T22:39:29.439Z,13.67
2018-12-05T22:41:56.896Z,12.57
2018-12-05T22:44:27.167Z,14.20
2018-12-05T22:46:54.706Z,13.73
2018-12-05T22:49:22.119Z,13.43
2018-12-05T22:54:43.717Z,13.60
2018-12-05T22:57:13.338Z,13.57
2018-12-05T22:59:41.290Z,13.60
2018-12-05T23:02:11.712Z,12.63
2018-12-05T23:04:39.231Z,12.37
2018-12-05T23:07:06.649Z,13.37
2018-12-05T23:09:34.130Z,13.93
2018-12-05T23:12:01.557Z,13.60
2018-12-05T23:14:28.998Z,13.93
2018-12-05T23:16:56.591Z,13.53
2018-12-05T23:19:24.132Z,14.00
2018-12-05T23:21:51.578Z,12.63
2018-12-05T23:24:19.090Z,13.60
2018-12-05T23:26:46.539Z,12.97
2018-12-05T23:29:13.976Z,13.20
2018-12-05T23:31:41.422Z,12.83
2018-12-05T23:34:15.758Z,13.00
2018-12-05T23:36:43.167Z,13.37
2018-12-05T23:39:10.596Z,12.90
2018-12-05T23:41:38.242Z,13.27
2018-12-05T23:44:09.636Z,13.17
2018-12-05T23:46:42.191Z,12.47
2018-12-05T23:49:09.639Z,12.63
2018-12-05T23:51:37.072Z,12.77
2018-12-05T23:54:10.399Z,12.80
2018-12-05T23:56:41.018Z,12.93
2018-12-05T23:59:08.474Z,12.63
